Time;durP1;ratioP1;P1;durP2;ratioP2;P2;SDS_P1;SDS_P2;PMS_P1;PMS_P2;Temp;Humidity;BMP_temperature;BMP_pressure;BME280_temperature;BME280_humidity;BME280_pressure;Samples;Min_cycle;Max_cycle;Signal;HPM_P1;HPM_P2
2022/05/24 00:00:17;;;;;;;3.95;2.58;;;;;;;;;;5065744;28;20021;-87
2022/05/24 00:02:43;;;;;;;4.00;2.85;;;;;;;;;;5060521;28;20461;-86
2022/05/24 00:05:09;;;;;;;3.78;2.65;;;;;;;;;;5066817;28;20036;-85
2022/05/24 00:07:35;;;;;;;3.45;2.50;;;;;;;;;;5065561;28;20051;-86
2022/05/24 00:10:01;;;;;;;4.00;3.05;;;;;;;;;;5065800;28;20480;-87
2022/05/24 00:12:27;;;;;;;5.78;2.78;;;;;;;;;;5061531;28;20385;-88
2022/05/24 00:17:37;;;;;;;3.33;2.55;;;;;;;;;;5061710;28;20079;-87
2022/05/24 00:20:04;;;;;;;4.65;2.47;;;;;;;;;;5065599;28;20028;-87
2022/05/24 00:22:29;;;;;;;4.53;2.55;;;;;;;;;;5062982;28;20035;-87
2022/05/24 00:25:00;;;;;;;4.72;2.80;;;;;;;;;;5069619;28;20024;-87
2022/05/24 00:27:29;;;;;;;5.95;3.60;;;;;;;;;;5059323;28;20025;-87
2022/05/24 00:29:55;;;;;;;5.20;3.28;;;;;;;;;;5067255;28;20028;-88
2022/05/24 00:32:20;;;;;;;6.80;3.35;;;;;;;;;;5065530;28;20021;-87
2022/05/24 00:34:46;;;;;;;5.20;3.10;;;;;;;;;;5065568;28;20059;-86
2022/05/24 00:37:11;;;;;;;8.18;3.13;;;;;;;;;;5062343;28;20025;-86
2022/05/24 00:39:37;;;;;;;6.05;3.28;;;;;;;;;;5066741;28;20025;-88
2022/05/24 00:42:13;;;;;;;3.88;2.78;;;;;;;;;;5060206;28;20153;-85
2022/05/24 00:45:03;;;;;;;4.75;2.88;;;;;;;;;;5065485;28;20112;-86
2022/05/24 00:47:34;;;;;;;4.22;2.38;;;;;;;;;;5062531;28;20025;-87
2022/05/24 00:50:08;;;;;;;4.03;2.67;;;;;;;;;;5060826;28;20020;-84
2022/05/24 00:52:42;;;;;;;4.82;3.08;;;;;;;;;;5063491;28;20056;-88
2022/05/24 00:55:11;;;;;;;4.50;2.60;;;;;;;;;;5059957;28;20035;-85
2022/05/24 00:58:01;;;;;;;4.10;2.93;;;;;;;;;;5059189;28;20100;-86
2022/05/24 01:00:28;;;;;;;5.38;2.58;;;;;;;;;;5046692;28;20396;-86
2022/05/24 01:02:53;;;;;;;3.47;2.88;;;;;;;;;;5062730;28;20044;-86
2022/05/24 01:05:23;;;;;;;5.22;2.90;;;;;;;;;;5068811;28;20031;-87
2022/05/24 01:07:48;;;;;;;3.20;2.55;;;;;;;;;;5064799;28;20541;-86
2022/05/24 01:10:26;;;;;;;4.50;2.90;;;;;;;;;;5069640;28;20103;-86
2022/05/24 01:13:01;;;;;;;4.32;2.42;;;;;;;;;;5060196;28;20071;-87
2022/05/24 01:15:28;;;;;;;3.67;2.30;;;;;;;;;;5065765;28;20028;-87
2022/05/24 01:17:55;;;;;;;3.47;2.33;;;;;;;;;;5066939;28;20028;-84
2022/05/24 01:20:22;;;;;;;3.25;2.30;;;;;;;;;;5065979;28;20099;-84
2022/05/24 01:23:18;;;;;;;3.67;2.88;;;;;;;;;;5069185;28;20037;-87
2022/05/24 01:25:58;;;;;;;4.78;2.88;;;;;;;;;;5067127;28;20102;-86
2022/05/24 01:28:31;;;;;;;4.00;2.97;;;;;;;;;;5057741;28;20037;-86
2022/05/24 01:30:57;;;;;;;4.82;2.92;;;;;;;;;;5069240;28;20027;-86
2022/05/24 01:36:13;;;;;;;5.97;3.10;;;;;;;;;;5075431;28;20124;-88
2022/05/24 01:38:44;;;;;;;4.90;2.47;;;;;;;;;;5068879;28;20397;-86
2022/05/24 01:41:15;;;;;;;3.90;2.80;;;;;;;;;;5065563;28;20513;-84
2022/05/24 01:43:42;;;;;;;4.07;2.40;;;;;;;;;;5060019;28;20082;-87
2022/05/24 01:46:10;;;;;;;4.13;3.10;;;;;;;;;;5063224;28;20430;-86
2022/05/24 01:48:46;;;;;;;4.35;2.55;;;;;;;;;;5071072;28;20499;-84
2022/05/24 01:51:15;;;;;;;7.05;3.28;;;;;;;;;;5066283;28;20020;-89
2022/05/24 01:53:44;;;;;;;3.83;3.05;;;;;;;;;;5061776;28;20027;-84
2022/05/24 01:56:14;;;;;;;3.20;2.60;;;;;;;;;;5058051;28;20362;-85
2022/05/24 01:58:41;;;;;;;;;;;;;;;;;;5066147;28;20055;-89
2022/05/24 02:01:23;;;;;;;6.32;3.80;;;;;;;;;;5066184;28;19982;-87
2022/05/24 02:03:49;;;;;;;6.00;3.50;;;;;;;;;;5066855;28;20691;-85
2022/05/24 02:06:27;;;;;;;4.13;3.70;;;;;;;;;;5069411;28;20028;-85
2022/05/24 02:08:54;;;;;;;8.10;3.80;;;;;;;;;;5062369;28;20053;-86
2022/05/24 02:11:30;;;;;;;5.35;3.70;;;;;;;;;;5066044;28;20473;-85
2022/05/24 02:14:06;;;;;;;6.82;4.15;;;;;;;;;;5067878;28;20110;-85
2022/05/24 02:16:34;;;;;;;6.45;3.50;;;;;;;;;;5060940;28;20037;-84
2022/05/24 02:19:01;;;;;;;6.57;3.63;;;;;;;;;;5059857;28;20029;-86
2022/05/24 02:21:27;;;;;;;5.00;3.58;;;;;;;;;;5066017;28;20024;-87
2022/05/24 02:23:52;;;;;;;3.75;3.30;;;;;;;;;;5064883;28;20040;-88
2022/05/24 02:26:21;;;;;;;7.57;4.53;;;;;;;;;;5061957;28;20112;-85
2022/05/24 02:28:50;;;;;;;6.35;4.30;;;;;;;;;;5064605;28;20025;-89
2022/05/24 02:31:17;;;;;;;5.22;3.92;;;;;;;;;;5068162;28;20031;-88
2022/05/24 02:33:45;;;;;;;4.80;3.53;;;;;;;;;;5060010;28;20064;-85
2022/05/24 02:36:12;;;;;;;4.88;3.70;;;;;;;;;;5061667;28;20048;-84
2022/05/24 02:38:38;;;;;;;5.13;3.53;;;;;;;;;;5075782;28;20030;-86
2022/05/24 02:43:48;;;;;;;4.25;3.63;;;;;;;;;;5065091;28;20071;-88
2022/05/24 02:46:18;;;;;;;6.03;3.75;;;;;;;;;;5078889;28;20059;-88
2022/05/24 02:48:44;;;;;;;7.25;4.53;;;;;;;;;;5069295;28;20033;-86
2022/05/24 02:51:12;;;;;;;6.70;3.53;;;;;;;;;;5074709;28;20028;-85
2022/05/24 02:53:40;;;;;;;5.32;4.03;;;;;;;;;;5073633;28;20047;-86
2022/05/24 02:56:06;;;;;;;4.72;3.40;;;;;;;;;;5074384;28;20028;-84
2022/05/24 02:58:32;;;;;;;6.45;3.75;;;;;;;;;;5067927;28;20472;-85
2022/05/24 03:00:58;;;;;;;4.13;3.50;;;;;;;;;;5060512;28;20116;-83
2022/05/24 03:03:24;;;;;;;7.53;3.50;;;;;;;;;;5067293;28;20029;-86
2022/05/24 03:05:50;;;;;;;6.57;3.60;;;;;;;;;;5064388;28;20031;-86
2022/05/24 03:10:59;;;;;;;4.57;3.53;;;;;;;;;;5070531;28;20097;-85
2022/05/24 03:16:11;;;;;;;6.70;3.45;;;;;;;;;;5061348;28;20035;-87
2022/05/24 03:18:37;;;;;;;4.75;3.55;;;;;;;;;;5059214;28;20104;-86
2022/05/24 03:21:02;;;;;;;5.28;3.85;;;;;;;;;;5062183;28;20135;-86
2022/05/24 03:23:28;;;;;;;6.75;4.25;;;;;;;;;;5060854;28;20025;-87
2022/05/24 03:25:53;;;;;;;6.38;3.50;;;;;;;;;;5062873;28;20032;-87
2022/05/24 03:28:20;;;;;;;7.10;5.03;;;;;;;;;;5061948;28;20024;-85
2022/05/24 03:30:45;;;;;;;4.30;3.50;;;;;;;;;;5061512;28;20103;-85
2022/05/24 03:33:11;;;;;;;6.00;3.85;;;;;;;;;;5060073;28;20109;-89
2022/05/24 03:35:37;;;;;;;5.10;3.60;;;;;;;;;;5069752;28;20074;-87
2022/05/24 03:38:03;;;;;;;6.32;4.18;;;;;;;;;;5060963;28;20044;-85
2022/05/24 03:40:29;;;;;;;4.20;3.72;;;;;;;;;;5063764;28;20073;-86
2022/05/24 03:42:55;;;;;;;6.80;3.70;;;;;;;;;;5067924;28;20043;-87
2022/05/24 03:45:23;;;;;;;5.45;3.97;;;;;;;;;;5062906;28;20021;-88
2022/05/24 03:47:49;;;;;;;4.28;3.80;;;;;;;;;;5063565;28;20171;-85
2022/05/24 03:50:16;;;;;;;5.68;3.50;;;;;;;;;;5063163;28;20103;-86
2022/05/24 03:52:42;;;;;;;5.47;3.78;;;;;;;;;;5066485;28;20033;-87
2022/05/24 03:55:08;;;;;;;5.85;4.22;;;;;;;;;;5062166;28;20024;-85
2022/05/24 04:00:20;;;;;;;5.63;4.15;;;;;;;;;;5063414;28;20106;-89
2022/05/24 04:02:46;;;;;;;7.32;3.97;;;;;;;;;;5066056;28;20043;-86
2022/05/24 04:05:12;;;;;;;6.65;4.05;;;;;;;;;;5063542;28;20028;-87
2022/05/24 04:07:38;;;;;;;7.85;5.10;;;;;;;;;;5060524;28;20083;-84
2022/05/24 04:10:06;;;;;;;6.95;4.43;;;;;;;;;;5066270;28;20028;-88
2022/05/24 04:12:31;;;;;;;7.32;4.85;;;;;;;;;;5069318;28;20056;-87
2022/05/24 04:14:57;;;;;;;6.65;4.45;;;;;;;;;;5062861;28;20055;-88
2022/05/24 04:17:22;;;;;;;5.68;4.30;;;;;;;;;;5062996;28;20049;-85
2022/05/24 04:19:48;;;;;;;5.60;4.22;;;;;;;;;;5064904;28;20059;-85
2022/05/24 04:22:13;;;;;;;5.88;4.32;;;;;;;;;;5063665;28;20099;-86
2022/05/24 04:24:40;;;;;;;7.05;5.07;;;;;;;;;;5069172;28;20039;-87
2022/05/24 04:27:07;;;;;;;5.30;4.20;;;;;;;;;;5070775;28;20036;-85
2022/05/24 04:29:33;;;;;;;5.80;4.53;;;;;;;;;;5072189;28;20036;-85
2022/05/24 04:31:58;;;;;;;8.00;4.80;;;;;;;;;;5068166;28;20032;-86
2022/05/24 04:34:24;;;;;;;6.65;4.53;;;;;;;;;;5076659;28;20043;-87
2022/05/24 04:36:49;;;;;;;5.43;4.10;;;;;;;;;;5079132;28;20077;-86
2022/05/24 04:39:16;;;;;;;7.93;4.63;;;;;;;;;;5081487;28;20096;-88
2022/05/24 04:44:26;;;;;;;6.60;4.80;;;;;;;;;;5077380;28;20046;-87
2022/05/24 04:47:10;;;;;;;8.35;4.95;;;;;;;;;;5083022;28;20027;-87
2022/05/24 04:49:41;;;;;;;5.57;4.80;;;;;;;;;;5077442;28;20058;-86
2022/05/24 04:52:09;;;;;;;6.70;4.57;;;;;;;;;;5077547;28;20391;-87
2022/05/24 04:54:35;;;;;;;6.38;4.90;;;;;;;;;;5075771;28;20078;-85
2022/05/24 04:57:00;;;;;;;7.95;4.85;;;;;;;;;;5067065;28;20072;-89
2022/05/24 04:59:26;;;;;;;8.13;5.10;;;;;;;;;;5076192;28;20063;-85
2022/05/24 05:01:51;;;;;;;7.45;4.88;;;;;;;;;;5068527;28;20045;-86
2022/05/24 05:04:18;;;;;;;6.55;4.82;;;;;;;;;;5073527;28;20453;-87
2022/05/24 05:06:45;;;;;;;7.30;5.55;;;;;;;;;;5072451;28;20039;-85
2022/05/24 05:09:11;;;;;;;11.25;5.43;;;;;;;;;;5067280;28;20361;-87
2022/05/24 05:11:37;;;;;;;7.95;5.72;;;;;;;;;;5069124;28;20032;-87
2022/05/24 05:14:02;;;;;;;10.07;5.43;;;;;;;;;;5065112;28;20021;-86
2022/05/24 05:16:28;;;;;;;9.30;6.25;;;;;;;;;;5072856;28;20028;-86
2022/05/24 05:18:53;;;;;;;9.30;5.90;;;;;;;;;;5075434;28;20021;-87
2022/05/24 05:21:28;;;;;;;7.40;5.38;;;;;;;;;;5064360;28;20393;-88
2022/05/24 05:23:53;;;;;;;6.47;5.45;;;;;;;;;;5065334;28;20124;-86
2022/05/24 05:26:19;;;;;;;21.65;15.75;;;;;;;;;;5064786;28;20051;-85
2022/05/24 05:28:44;;;;;;;18.63;14.95;;;;;;;;;;5064971;28;20033;-84
2022/05/24 05:31:27;;;;;;;9.50;6.72;;;;;;;;;;5068967;28;20024;-88
2022/05/24 05:33:58;;;;;;;9.15;5.78;;;;;;;;;;5077427;28;20061;-84
2022/05/24 05:36:24;;;;;;;6.90;5.65;;;;;;;;;;5080075;28;20108;-87
2022/05/24 05:38:50;;;;;;;7.53;5.10;;;;;;;;;;5072116;28;20444;-85
2022/05/24 05:41:24;;;;;;;8.30;5.55;;;;;;;;;;5078964;28;20069;-86
2022/05/24 05:43:50;;;;;;;10.40;5.70;;;;;;;;;;5068192;28;20482;-87
2022/05/24 05:46:17;;;;;;;7.85;5.55;;;;;;;;;;5065607;28;20077;-86
2022/05/24 05:48:42;;;;;;;11.05;5.82;;;;;;;;;;5074969;28;20102;-87
2022/05/24 05:51:10;;;;;;;10.55;5.55;;;;;;;;;;5074331;28;20104;-85
2022/05/24 05:53:38;;;;;;;8.50;5.95;;;;;;;;;;5065858;28;20043;-86
2022/05/24 05:56:04;;;;;;;8.07;5.20;;;;;;;;;;5072472;28;20020;-86
2022/05/24 05:58:31;;;;;;;7.30;6.05;;;;;;;;;;5075648;28;20094;-87
2022/05/24 06:00:57;;;;;;;10.70;6.47;;;;;;;;;;5070652;28;20020;-86
2022/05/24 06:03:22;;;;;;;7.07;5.93;;;;;;;;;;5075787;28;20047;-86
2022/05/24 06:05:51;;;;;;;8.85;5.68;;;;;;;;;;5058760;28;20047;-85
2022/05/24 06:08:17;;;;;;;10.07;6.90;;;;;;;;;;5064860;28;20029;-85
2022/05/24 06:10:43;;;;;;;7.88;6.18;;;;;;;;;;5062579;28;20048;-85
2022/05/24 06:13:08;;;;;;;9.88;6.97;;;;;;;;;;5064817;28;20028;-87
2022/05/24 06:15:35;;;;;;;11.75;6.80;;;;;;;;;;5069466;28;20048;-86
2022/05/24 06:18:01;;;;;;;8.80;7.15;;;;;;;;;;5064898;28;20035;-85
2022/05/24 06:20:29;;;;;;;8.90;7.30;;;;;;;;;;5060968;28;20028;-84
2022/05/24 06:22:57;;;;;;;9.05;6.18;;;;;;;;;;5072528;28;20063;-87
2022/05/24 06:25:27;;;;;;;10.38;6.45;;;;;;;;;;5066555;28;20028;-87
2022/05/24 06:27:54;;;;;;;8.35;6.88;;;;;;;;;;5071591;28;20414;-88
2022/05/24 06:30:21;;;;;;;10.32;6.97;;;;;;;;;;5078989;28;20039;-87
2022/05/24 06:32:48;;;;;;;9.48;6.22;;;;;;;;;;5066512;28;20550;-88
2022/05/24 06:35:14;;;;;;;12.43;6.53;;;;;;;;;;5061676;28;20410;-85
2022/05/24 06:37:40;;;;;;;10.10;6.63;;;;;;;;;;5067446;28;20104;-87
2022/05/24 06:40:08;;;;;;;9.50;6.18;;;;;;;;;;5065076;28;20021;-85
2022/05/24 06:42:34;;;;;;;11.50;6.60;;;;;;;;;;5078076;28;20104;-86
2022/05/24 06:45:01;;;;;;;16.38;7.45;;;;;;;;;;5079397;28;20027;-87
2022/05/24 06:47:27;;;;;;;9.73;5.95;;;;;;;;;;5062443;28;20024;-86
2022/05/24 06:49:53;;;;;;;11.30;6.57;;;;;;;;;;5065088;28;20107;-86
2022/05/24 06:52:19;;;;;;;12.30;8.50;;;;;;;;;;5070315;28;20104;-81
2022/05/24 06:54:44;;;;;;;10.02;6.57;;;;;;;;;;5069290;28;20032;-87
2022/05/24 06:57:09;;;;;;;10.60;6.40;;;;;;;;;;5067358;28;20151;-86
2022/05/24 07:02:25;;;;;;;6.93;5.88;;;;;;;;;;5070174;28;20129;-87
2022/05/24 07:05:06;;;;;;;11.75;7.20;;;;;;;;;;5063926;28;20355;-88
2022/05/24 07:07:33;;;;;;;9.55;6.65;;;;;;;;;;5071014;28;20029;-86
2022/05/24 07:09:59;;;;;;;9.68;6.15;;;;;;;;;;5065957;28;20560;-87
2022/05/24 07:12:26;;;;;;;9.70;5.88;;;;;;;;;;5064436;28;20470;-87
2022/05/24 07:14:52;;;;;;;11.07;7.40;;;;;;;;;;5070774;28;20468;-86
2022/05/24 07:17:18;;;;;;;8.32;6.45;;;;;;;;;;5075355;28;20054;-87
2022/05/24 07:19:45;;;;;;;9.27;6.18;;;;;;;;;;5063014;28;20021;-86
2022/05/24 07:22:12;;;;;;;10.85;6.28;;;;;;;;;;5060124;28;20373;-86
2022/05/24 07:24:38;;;;;;;7.60;6.45;;;;;;;;;;5065818;28;20500;-87
2022/05/24 07:27:07;;;;;;;8.52;6.45;;;;;;;;;;5066085;28;20044;-86
2022/05/24 07:29:35;;;;;;;11.82;6.43;;;;;;;;;;5069728;28;20089;-87
2022/05/24 07:32:01;;;;;;;12.90;5.95;;;;;;;;;;5060866;28;20157;-87
2022/05/24 07:34:27;;;;;;;11.98;6.57;;;;;;;;;;5064803;28;20537;-87
2022/05/24 07:36:53;;;;;;;10.18;5.65;;;;;;;;;;5060386;28;20041;-88
2022/05/24 07:39:18;;;;;;;10.57;6.63;;;;;;;;;;5067401;28;20028;-87
2022/05/24 07:47:13;;;;;;;11.18;6.18;;;;;;;;;;5071296;28;20143;-85
2022/05/24 07:49:38;;;;;;;9.45;5.80;;;;;;;;;;5072185;28;20047;-86
2022/05/24 07:52:05;;;;;;;9.95;6.38;;;;;;;;;;5070005;28;20074;-86
2022/05/24 07:54:32;;;;;;;12.13;6.10;;;;;;;;;;5076706;28;20013;-85
2022/05/24 07:56:57;;;;;;;7.95;5.28;;;;;;;;;;5076900;28;20103;-87
2022/05/24 07:59:23;;;;;;;8.25;5.70;;;;;;;;;;5075478;28;20412;-86
2022/05/24 08:01:48;;;;;;;12.70;7.45;;;;;;;;;;5065204;28;20040;-87
2022/05/24 08:04:14;;;;;;;9.50;6.28;;;;;;;;;;5063010;28;20128;-86
2022/05/24 08:06:39;;;;;;;11.82;6.07;;;;;;;;;;5066844;28;20265;-86
2022/05/24 08:09:05;;;;;;;9.10;5.45;;;;;;;;;;5076543;28;20104;-86
2022/05/24 08:11:31;;;;;;;9.05;5.70;;;;;;;;;;5068332;28;20029;-85
2022/05/24 08:13:59;;;;;;;11.05;6.43;;;;;;;;;;5064679;28;20021;-87
2022/05/24 08:16:27;;;;;;;9.07;5.63;;;;;;;;;;5071807;28;20060;-85
2022/05/24 08:18:53;;;;;;;6.70;5.70;;;;;;;;;;5071222;28;20039;-87
2022/05/24 08:21:20;;;;;;;8.50;6.40;;;;;;;;;;5072761;28;20025;-85
2022/05/24 08:23:45;;;;;;;10.40;6.30;;;;;;;;;;5070693;28;20101;-86
2022/05/24 08:26:12;;;;;;;8.63;5.80;;;;;;;;;;5067423;28;20536;-84
2022/05/24 08:28:40;;;;;;;13.15;6.50;;;;;;;;;;5073438;28;20032;-87
2022/05/24 08:31:06;;;;;;;9.32;6.00;;;;;;;;;;5063060;28;20048;-84
2022/05/24 08:33:31;;;;;;;7.43;5.88;;;;;;;;;;5071244;28;20105;-85
2022/05/24 08:35:57;;;;;;;11.43;6.18;;;;;;;;;;5070171;28;20086;-84
2022/05/24 08:38:23;;;;;;;7.30;5.35;;;;;;;;;;5073567;28;20021;-84
2022/05/24 08:40:50;;;;;;;10.43;5.93;;;;;;;;;;5064330;28;20392;-89
2022/05/24 08:43:51;;;;;;;9.18;6.45;;;;;;;;;;5070287;28;20028;-88
2022/05/24 08:49:15;;;;;;;10.48;5.78;;;;;;;;;;5063326;28;20036;-86
2022/05/24 08:51:47;;;;;;;7.40;5.60;;;;;;;;;;5065309;28;20468;-85
2022/05/24 08:54:19;;;;;;;8.13;5.80;;;;;;;;;;5061718;28;20020;-86
2022/05/24 08:56:51;;;;;;;9.45;6.13;;;;;;;;;;5070977;28;20442;-84
2022/05/24 08:59:29;;;;;;;9.15;5.93;;;;;;;;;;5066945;28;20028;-86
2022/05/24 09:01:56;;;;;;;7.07;5.45;;;;;;;;;;5070928;28;20404;-85
2022/05/24 09:04:22;;;;;;;6.95;5.40;;;;;;;;;;5063552;28;20086;-86
2022/05/24 09:07:13;;;;;;;8.85;5.65;;;;;;;;;;5065864;28;20034;-85
2022/05/24 09:09:45;;;;;;;7.95;5.35;;;;;;;;;;5062379;28;20457;-84
2022/05/24 09:12:19;;;;;;;9.13;6.85;;;;;;;;;;5064617;28;20048;-86
2022/05/24 09:15:03;;;;;;;8.65;6.53;;;;;;;;;;5065974;28;20033;-85
2022/05/24 09:17:50;;;;;;;11.50;5.43;;;;;;;;;;5070857;28;20078;-85
2022/05/24 09:20:24;;;;;;;9.35;5.93;;;;;;;;;;5070277;28;20028;-85
2022/05/24 09:23:00;;;;;;;8.25;5.80;;;;;;;;;;5062913;28;20048;-86
2022/05/24 09:25:26;;;;;;;7.60;5.07;;;;;;;;;;5063281;28;20028;-81
2022/05/24 09:27:55;;;;;;;7.75;5.55;;;;;;;;;;5064787;28;20472;-83
2022/05/24 09:30:24;;;;;;;7.13;5.07;;;;;;;;;;5057815;28;20029;-84
2022/05/24 09:32:50;;;;;;;6.75;5.53;;;;;;;;;;5071594;28;20020;-84
2022/05/24 09:35:21;;;;;;;5.85;5.07;;;;;;;;;;5078125;28;20105;-85
2022/05/24 09:38:14;;;;;;;7.78;5.22;;;;;;;;;;5073061;28;20040;-84
2022/05/24 09:40:55;;;;;;;8.52;5.38;;;;;;;;;;5085072;28;20029;-83
2022/05/24 09:43:33;;;;;;;7.57;5.20;;;;;;;;;;5061136;28;20380;-85
2022/05/24 09:46:08;;;;;;;7.68;5.40;;;;;;;;;;5063309;28;20020;-84
2022/05/24 09:48:40;;;;;;;7.57;5.63;;;;;;;;;;5066363;28;20032;-89
2022/05/24 09:51:10;;;;;;;10.73;5.72;;;;;;;;;;5061205;28;21120;-86
2022/05/24 09:53:49;;;;;;;8.60;5.00;;;;;;;;;;5070823;28;20383;-86
2022/05/24 09:56:33;;;;;;;6.15;5.55;;;;;;;;;;5060000;28;20037;-83
2022/05/24 09:58:58;;;;;;;10.65;5.07;;;;;;;;;;5072886;28;20031;-84
2022/05/24 10:01:43;;;;;;;10.50;5.35;;;;;;;;;;5066999;28;20049;-85
2022/05/24 10:04:36;;;;;;;6.50;4.75;;;;;;;;;;5072256;28;20024;-85
2022/05/24 10:07:20;;;;;;;7.53;4.90;;;;;;;;;;5061792;28;20027;-84
2022/05/24 10:10:03;;;;;;;7.97;5.85;;;;;;;;;;5066652;28;20072;-83
2022/05/24 10:12:38;;;;;;;9.05;5.15;;;;;;;;;;5065117;28;20028;-84
2022/05/24 10:15:30;;;;;;;8.63;5.10;;;;;;;;;;5065697;28;20472;-85
2022/05/24 10:18:17;;;;;;;7.90;5.18;;;;;;;;;;5070364;28;20032;-84
2022/05/24 10:20:47;;;;;;;9.25;5.25;;;;;;;;;;5069143;28;20135;-86
2022/05/24 10:23:31;;;;;;;8.05;4.88;;;;;;;;;;5070087;28;20049;-84
2022/05/24 10:26:26;;;;;;;7.43;5.15;;;;;;;;;;5062059;28;20369;-84
2022/05/24 10:29:11;;;;;;;6.40;4.60;;;;;;;;;;5069230;28;20094;-83
2022/05/24 10:32:04;;;;;;;6.40;4.80;;;;;;;;;;5065004;28;20031;-84
2022/05/24 10:38:19;;;;;;;9.00;5.13;;;;;;;;;;5057003;28;20396;-85
2022/05/24 10:41:00;;;;;;;8.38;5.07;;;;;;;;;;5060740;28;20044;-85
2022/05/24 10:43:50;;;;;;;7.18;4.80;;;;;;;;;;5065899;28;20028;-86
2022/05/24 10:46:20;;;;;;;7.28;5.15;;;;;;;;;;5058828;28;20029;-86
2022/05/24 10:48:55;;;;;;;9.27;5.20;;;;;;;;;;5068287;28;20037;-85
2022/05/24 10:51:39;;;;;;;6.72;4.88;;;;;;;;;;5074558;28;20056;-85
2022/05/24 10:54:14;;;;;;;6.13;5.15;;;;;;;;;;5073248;28;20044;-83
2022/05/24 10:56:44;;;;;;;7.30;5.03;;;;;;;;;;5072175;28;20051;-84
2022/05/24 10:59:46;;;;;;;6.45;4.85;;;;;;;;;;5069602;28;20027;-84
2022/05/24 11:02:41;;;;;;;5.07;4.57;;;;;;;;;;5063793;28;20401;-86
2022/05/24 11:05:09;;;;;;;6.10;4.32;;;;;;;;;;5057993;28;20070;-86
2022/05/24 11:07:36;;;;;;;6.38;4.90;;;;;;;;;;5078846;28;20034;-85
2022/05/24 11:10:24;;;;;;;6.85;4.47;;;;;;;;;;5079137;28;20069;-84
2022/05/24 11:12:52;;;;;;;5.57;4.68;;;;;;;;;;5070870;28;20028;-85
2022/05/24 11:15:28;;;;;;;10.80;5.28;;;;;;;;;;5071373;28;20036;-85
2022/05/24 11:17:54;;;;;;;10.23;5.53;;;;;;;;;;5066369;28;20388;-85
2022/05/24 11:20:33;;;;;;;6.05;4.60;;;;;;;;;;5071767;28;20032;-83
2022/05/24 11:23:05;;;;;;;;;;;;;;;;;;5078462;28;20070;-87
2022/05/24 11:25:41;;;;;;;7.60;4.60;;;;;;;;;;5073816;28;19966;-85
2022/05/24 11:28:09;;;;;;;6.82;5.05;;;;;;;;;;5057237;28;20043;-83
2022/05/24 11:30:38;;;;;;;6.28;4.53;;;;;;;;;;5058805;28;20515;-83
2022/05/24 11:33:03;;;;;;;9.10;4.70;;;;;;;;;;5069495;28;20028;-85
2022/05/24 11:35:38;;;;;;;7.32;4.50;;;;;;;;;;5064412;28;20021;-83
2022/05/24 11:38:17;;;;;;;6.55;4.78;;;;;;;;;;5063125;28;20028;-82
2022/05/24 11:40:55;;;;;;;8.02;4.65;;;;;;;;;;5070940;28;20116;-86
2022/05/24 11:43:35;;;;;;;6.13;4.40;;;;;;;;;;5063337;28;20400;-81
2022/05/24 11:46:07;;;;;;;8.27;5.15;;;;;;;;;;5068821;28;20043;-82
2022/05/24 11:48:48;;;;;;;5.25;4.43;;;;;;;;;;5067949;28;20024;-84
2022/05/24 11:51:57;;;;;;;6.32;5.38;;;;;;;;;;5076652;28;20111;-81
2022/05/24 11:54:23;;;;;;;7.47;4.82;;;;;;;;;;5073272;28;20036;-84
2022/05/24 11:57:00;;;;;;;8.15;4.78;;;;;;;;;;5077996;28;20102;-84
2022/05/24 11:59:41;;;;;;;9.38;4.93;;;;;;;;;;5073017;28;20111;-84
2022/05/24 12:02:26;;;;;;;9.40;5.00;;;;;;;;;;5066491;28;20388;-85
2022/05/24 12:08:32;;;;;;;7.43;4.80;;;;;;;;;;5061958;28;20043;-86
2022/05/24 12:11:09;;;;;;;9.52;4.93;;;;;;;;;;5060392;28;20040;-85
2022/05/24 12:13:44;;;;;;;6.45;4.47;;;;;;;;;;5060911;28;20096;-84
2022/05/24 12:16:33;;;;;;;7.57;5.20;;;;;;;;;;5058431;28;20167;-87
2022/05/24 12:19:03;;;;;;;7.20;5.53;;;;;;;;;;5061739;28;20052;-86
2022/05/24 12:21:59;;;;;;;5.40;4.70;;;;;;;;;;5069195;28;20020;-85
2022/05/24 12:24:37;;;;;;;5.60;4.50;;;;;;;;;;5068210;28;20038;-88
2022/05/24 12:27:23;;;;;;;9.13;4.43;;;;;;;;;;5071571;28;20472;-86
2022/05/24 12:29:57;;;;;;;9.60;4.32;;;;;;;;;;5064644;28;20468;-87
2022/05/24 12:32:25;;;;;;;7.28;4.38;;;;;;;;;;5056827;28;20021;-86
2022/05/24 12:34:51;;;;;;;8.27;5.03;;;;;;;;;;5068462;28;20021;-86
2022/05/24 12:37:25;;;;;;;5.55;4.20;;;;;;;;;;5061080;28;20035;-84
2022/05/24 12:40:06;;;;;;;8.35;4.43;;;;;;;;;;5065915;28;20028;-86
2022/05/24 12:42:32;;;;;;;6.32;4.32;;;;;;;;;;5066109;28;20468;-85
2022/05/24 12:45:00;;;;;;;8.30;4.70;;;;;;;;;;5064481;28;20025;-85
2022/05/24 12:47:26;;;;;;;;;;;;;;;;;;5064373;28;20062;-86
2022/05/24 12:49:58;;;;;;;6.07;4.35;;;;;;;;;;5059234;28;19921;-85
2022/05/24 12:52:29;;;;;;;7.78;4.50;;;;;;;;;;5066409;28;20103;-86
2022/05/24 12:54:57;;;;;;;9.82;4.65;;;;;;;;;;5061349;28;20070;-84
2022/05/24 12:57:39;;;;;;;10.20;5.30;;;;;;;;;;5064547;28;20027;-85
2022/05/24 13:00:12;;;;;;;8.80;4.75;;;;;;;;;;5067252;28;20036;-88
2022/05/24 13:02:45;;;;;;;8.13;4.65;;;;;;;;;;5068801;28;20072;-86
2022/05/24 13:05:20;;;;;;;8.63;5.13;;;;;;;;;;5063381;28;20028;-86
2022/05/24 13:08:06;;;;;;;7.93;4.90;;;;;;;;;;5068564;28;20025;-85
2022/05/24 13:10:37;;;;;;;7.75;5.35;;;;;;;;;;5061659;28;20024;-88
2022/05/24 13:13:15;;;;;;;8.32;4.97;;;;;;;;;;5060015;28;20056;-84
2022/05/24 13:15:47;;;;;;;7.10;4.35;;;;;;;;;;5061161;28;20028;-84
2022/05/24 13:18:23;;;;;;;11.38;5.20;;;;;;;;;;5072015;28;20028;-87
2022/05/24 13:20:50;;;;;;;5.90;4.63;;;;;;;;;;5066643;28;20483;-85
2022/05/24 13:23:16;;;;;;;7.80;4.80;;;;;;;;;;5069273;28;20024;-85
2022/05/24 13:25:52;;;;;;;5.63;4.68;;;;;;;;;;5070459;28;20032;-85
2022/05/24 13:28:35;;;;;;;6.65;5.20;;;;;;;;;;5069805;28;20397;-87
2022/05/24 13:34:23;;;;;;;7.45;4.80;;;;;;;;;;5062984;28;20404;-85
2022/05/24 13:36:55;;;;;;;4.85;4.35;;;;;;;;;;5067279;28;20111;-85
2022/05/24 13:39:43;;;;;;;5.18;4.68;;;;;;;;;;5070497;28;20016;-86
2022/05/24 13:42:20;;;;;;;12.43;4.63;;;;;;;;;;5063476;28;20363;-86
2022/05/24 13:45:26;;;;;;;8.65;4.90;;;;;;;;;;5066478;28;20116;-85
2022/05/24 13:48:00;;;;;;;9.82;5.28;;;;;;;;;;5037399;28;20044;-87
2022/05/24 13:50:37;;;;;;;7.97;5.43;;;;;;;;;;5063465;28;20071;-85
2022/05/24 13:53:11;;;;;;;8.65;5.30;;;;;;;;;;5065452;28;20024;-85
2022/05/24 13:55:38;;;;;;;8.23;5.03;;;;;;;;;;5069489;28;20051;-86
2022/05/24 13:58:28;;;;;;;7.82;5.28;;;;;;;;;;5070922;28;20059;-85
2022/05/24 14:01:02;;;;;;;7.63;5.20;;;;;;;;;;5071829;28;20028;-85
2022/05/24 14:03:49;;;;;;;7.25;5.45;;;;;;;;;;5064814;28;20036;-86
2022/05/24 14:06:21;;;;;;;7.70;5.18;;;;;;;;;;5068402;28;20041;-88
2022/05/24 14:08:49;;;;;;;9.98;5.07;;;;;;;;;;5062242;28;20107;-88
2022/05/24 14:11:17;;;;;;;;;;;;;;;;;;5065543;28;20511;-84
2022/05/24 14:13:44;;;;;;;8.00;4.95;;;;;;;;;;5063788;28;19927;-85
2022/05/24 14:16:11;;;;;;;8.60;5.47;;;;;;;;;;5065952;28;20041;-85
2022/05/24 14:18:37;;;;;;;8.23;4.97;;;;;;;;;;5062693;28;20423;-86
2022/05/24 14:21:03;;;;;;;10.07;4.93;;;;;;;;;;5067277;28;20127;-87
2022/05/24 14:23:30;;;;;;;6.15;5.18;;;;;;;;;;5067807;28;20040;-87
2022/05/24 14:25:55;;;;;;;10.60;5.38;;;;;;;;;;5068166;28;20032;-86
2022/05/24 14:28:21;;;;;;;13.75;9.90;;;;;;;;;;5065735;28;20040;-86
2022/05/24 14:30:47;;;;;;;16.58;12.13;;;;;;;;;;5063834;28;20033;-88
2022/05/24 14:33:15;;;;;;;9.23;5.53;;;;;;;;;;5060009;28;20419;-88
2022/05/24 14:35:40;;;;;;;13.07;5.80;;;;;;;;;;5064847;28;20029;-86
2022/05/24 14:38:06;;;;;;;7.50;4.90;;;;;;;;;;5060744;28;20047;-86
2022/05/24 14:40:37;;;;;;;6.32;5.10;;;;;;;;;;5062151;28;20037;-87
2022/05/24 14:43:03;;;;;;;6.75;4.97;;;;;;;;;;5061361;28;20488;-87
2022/05/24 14:45:28;;;;;;;6.57;5.00;;;;;;;;;;5061926;28;20059;-85
2022/05/24 14:47:54;;;;;;;10.93;5.28;;;;;;;;;;5066702;28;20024;-86
2022/05/24 14:50:19;;;;;;;7.10;4.80;;;;;;;;;;5066205;28;20059;-86
2022/05/24 14:52:45;;;;;;;6.55;5.03;;;;;;;;;;5057945;28;20024;-86
2022/05/24 14:55:18;;;;;;;10.35;5.90;;;;;;;;;;5066648;28;20112;-86
2022/05/24 14:57:44;;;;;;;10.50;5.43;;;;;;;;;;5067155;28;20024;-85
2022/05/24 15:00:11;;;;;;;5.63;5.07;;;;;;;;;;5068114;28;20408;-85
2022/05/24 15:02:40;;;;;;;7.85;5.63;;;;;;;;;;5065857;28;20078;-85
2022/05/24 15:05:10;;;;;;;8.63;5.25;;;;;;;;;;5069594;28;20039;-85
2022/05/24 15:15:55;;;;;;;9.52;5.80;;;;;;;;;;5067746;28;20095;-87
2022/05/24 15:18:20;;;;;;;11.10;5.68;;;;;;;;;;5064903;28;20472;-85
2022/05/24 15:20:46;;;;;;;7.80;5.20;;;;;;;;;;5066004;28;20036;-84
2022/05/24 15:23:17;;;;;;;9.48;5.90;;;;;;;;;;5067700;28;20098;-86
2022/05/24 15:26:06;;;;;;;8.07;5.28;;;;;;;;;;5064573;28;20111;-86
2022/05/24 15:28:36;;;;;;;7.55;5.43;;;;;;;;;;5064844;28;20690;-85
2022/05/24 15:31:02;;;;;;;11.43;3.80;;;;;;;;;;5063739;28;20079;-86
2022/05/24 15:33:28;;;;;;;11.82;3.60;;;;;;;;;;5065685;28;20033;-88
2022/05/24 15:35:53;;;;;;;5.88;3.65;;;;;;;;;;5060523;28;20067;-86
2022/05/24 15:38:20;;;;;;;8.38;3.65;;;;;;;;;;5063726;28;20032;-88
2022/05/24 15:40:46;;;;;;;11.68;4.35;;;;;;;;;;5066577;28;20808;-85
2022/05/24 15:43:13;;;;;;;7.70;4.72;;;;;;;;;;5061298;28;20384;-90
2022/05/24 15:45:40;;;;;;;5.55;4.40;;;;;;;;;;5065488;28;20053;-86
2022/05/24 15:48:06;;;;;;;9.23;4.28;;;;;;;;;;5065872;28;20078;-86
2022/05/24 15:50:32;;;;;;;7.65;4.63;;;;;;;;;;5054533;28;20029;-85
2022/05/24 15:53:01;;;;;;;8.48;4.55;;;;;;;;;;5066060;28;20443;-86